createdAt,value
2023-01-23T00:00:26.139Z,18.17
2023-01-23T00:02:53.217Z,19.02
2023-01-23T00:05:20.289Z,16.95
2023-01-23T00:07:47.806Z,18.13
2023-01-23T00:10:14.962Z,18.73
2023-01-23T00:12:43.236Z,20.45
2023-01-23T00:15:11.087Z,19.58
2023-01-23T00:17:38.168Z,19.00
2023-01-23T00:20:05.444Z,18.85
2023-01-23T00:22:32.499Z,26.02
2023-01-23T00:24:59.570Z,19.50
2023-01-23T00:27:26.620Z,19.63
2023-01-23T00:29:53.917Z,20.48
2023-01-23T00:32:20.941Z,18.35
2023-01-23T00:34:48.059Z,18.27
2023-01-23T00:37:16.551Z,20.17
2023-01-23T00:39:43.637Z,17.42
2023-01-23T00:42:10.658Z,16.58
2023-01-23T00:44:37.703Z,18.40
2023-01-23T00:47:06.349Z,17.38
2023-01-23T00:49:33.477Z,18.67
2023-01-23T00:52:00.567Z,17.95
2023-01-23T00:54:27.620Z,20.63
2023-01-23T00:56:54.732Z,17.50
2023-01-23T00:59:21.823Z,19.50
2023-01-23T01:01:48.946Z,18.55
2023-01-23T01:04:16.033Z,19.77
2023-01-23T01:06:43.177Z,17.38
2023-01-23T01:09:10.225Z,19.65
2023-01-23T01:11:37.353Z,18.77
2023-01-23T01:14:04.530Z,18.55
2023-01-23T01:16:31.636Z,18.80
2023-01-23T01:18:58.682Z,20.23
2023-01-23T01:21:25.700Z,21.17
2023-01-23T01:23:52.719Z,20.77
2023-01-23T01:26:22.894Z,19.88
2023-01-23T01:28:49.959Z,21.40
2023-01-23T01:31:17.211Z,20.58
2023-01-23T01:33:44.682Z,24.13
2023-01-23T01:36:12.366Z,19.23
2023-01-23T01:38:39.442Z,19.63
2023-01-23T01:41:06.678Z,19.52
2023-01-23T01:43:34.437Z,17.58
2023-01-23T01:46:16.546Z,19.48
2023-01-23T01:48:43.627Z,18.95
2023-01-23T01:51:30.975Z,19.42
2023-01-23T01:54:18.356Z,17.83
2023-01-23T01:56:57.591Z,18.55
2023-01-23T01:59:25.207Z,17.40
2023-01-23T02:01:53.236Z,17.50
2023-01-23T02:04:20.319Z,15.70
2023-01-23T02:06:47.373Z,18.63
2023-01-23T02:09:19.489Z,17.65
2023-01-23T02:11:46.670Z,18.10
2023-01-23T02:14:14.515Z,17.48
2023-01-23T02:16:46.320Z,18.27
2023-01-23T02:19:24.228Z,17.92
2023-01-23T02:21:51.415Z,16.17
2023-01-23T02:24:24.404Z,17.75
2023-01-23T02:26:51.527Z,17.23
2023-01-23T02:29:20.207Z,17.40
2023-01-23T02:31:49.577Z,16.13
2023-01-23T02:34:16.823Z,16.30
2023-01-23T02:36:45.619Z,14.88
2023-01-23T02:39:17.188Z,14.90
2023-01-23T02:41:48.295Z,16.17
2023-01-23T02:44:15.332Z,16.40
2023-01-23T02:46:42.408Z,16.05
2023-01-23T02:49:09.632Z,15.20
2023-01-23T02:51:36.748Z,17.17
2023-01-23T02:54:04.013Z,15.35
2023-01-23T02:56:31.039Z,20.52
2023-01-23T02:59:18.409Z,14.85
2023-01-23T03:01:45.450Z,15.30
2023-01-23T03:04:12.587Z,15.50
2023-01-23T03:06:39.701Z,16.02
2023-01-23T03:09:08.152Z,14.68
2023-01-23T03:11:35.446Z,16.55
2023-01-23T03:14:02.544Z,13.57
2023-01-23T03:16:29.993Z,14.02
2023-01-23T03:18:58.185Z,14.07
2023-01-23T03:21:25.231Z,14.55
2023-01-23T03:23:52.287Z,14.75
2023-01-23T03:26:19.340Z,14.45
2023-01-23T03:29:05.032Z,13.02
2023-01-23T03:31:32.186Z,14.43
2023-01-23T03:33:59.328Z,13.23
2023-01-23T03:36:26.447Z,13.05
2023-01-23T03:39:11.975Z,12.85
2023-01-23T03:41:41.970Z,11.73
2023-01-23T03:44:09.471Z,13.02
2023-01-23T03:46:36.616Z,13.05
2023-01-23T03:49:03.647Z,12.50
2023-01-23T03:51:30.779Z,13.30
2023-01-23T03:53:57.885Z,13.25
2023-01-23T03:56:24.931Z,13.52
2023-01-23T03:58:52.651Z,12.55
2023-01-23T04:01:19.815Z,13.77
2023-01-23T04:03:46.913Z,13.82
2023-01-23T04:06:13.984Z,11.95
2023-01-23T04:08:41.025Z,12.00
2023-01-23T04:11:09.031Z,15.32
2023-01-23T04:13:36.154Z,13.55
2023-01-23T04:16:03.295Z,14.93
2023-01-23T04:18:30.361Z,14.00
2023-01-23T04:20:57.477Z,14.52
2023-01-23T04:23:24.712Z,15.80
2023-01-23T04:25:51.996Z,13.30
2023-01-23T04:28:19.234Z,14.00
2023-01-23T04:30:46.512Z,14.52
2023-01-23T04:33:13.637Z,15.43
2023-01-23T04:35:40.723Z,13.20
2023-01-23T04:38:07.859Z,10.70
2023-01-23T04:40:34.922Z,12.27
2023-01-23T04:43:02.061Z,11.55
2023-01-23T04:45:29.092Z,10.15
2023-01-23T04:47:56.207Z,13.05
2023-01-23T04:50:23.232Z,11.85
2023-01-23T04:52:50.294Z,10.45
2023-01-23T04:55:17.711Z,11.85
2023-01-23T04:57:44.735Z,12.30
2023-01-23T05:00:12.062Z,11.48
2023-01-23T05:02:39.225Z,11.38
2023-01-23T05:05:06.589Z,10.65
2023-01-23T05:07:33.676Z,11.00
2023-01-23T05:10:00.765Z,13.13
2023-01-23T05:12:27.850Z,10.48
2023-01-23T05:14:54.896Z,10.55
2023-01-23T05:17:21.998Z,12.38
2023-01-23T05:19:49.040Z,12.90
2023-01-23T05:22:17.818Z,12.50
2023-01-23T05:24:45.040Z,13.50
2023-01-23T05:27:12.577Z,11.15
2023-01-23T05:29:39.729Z,13.13
2023-01-23T05:32:06.940Z,15.23
2023-01-23T05:34:33.999Z,16.98
2023-01-23T05:37:01.048Z,12.30
2023-01-23T05:39:28.062Z,13.23
2023-01-23T05:41:55.137Z,14.45
2023-01-23T05:44:22.172Z,14.32
2023-01-23T05:46:49.185Z,14.40
2023-01-23T05:49:16.266Z,11.93
2023-01-23T05:51:43.401Z,15.23
2023-01-23T05:54:10.937Z,13.27
2023-01-23T05:56:38.096Z,16.92
2023-01-23T05:59:05.405Z,13.43
2023-01-23T06:01:32.535Z,14.95
2023-01-23T06:03:59.717Z,15.48
2023-01-23T06:06:26.835Z,12.30
2023-01-23T06:08:53.864Z,10.88
2023-01-23T06:11:20.884Z,13.32
2023-01-23T06:13:47.920Z,13.73
2023-01-23T06:16:14.990Z,11.80
2023-01-23T06:18:42.143Z,12.65
2023-01-23T06:21:09.206Z,11.55
2023-01-23T06:23:36.312Z,12.77
2023-01-23T06:26:03.499Z,12.35
2023-01-23T06:28:30.709Z,10.45
2023-01-23T06:31:01.154Z,12.32
2023-01-23T06:35:59.127Z,14.07
2023-01-23T06:38:26.503Z,12.50
2023-01-23T06:40:53.969Z,12.77
2023-01-23T06:43:21.100Z,11.15
2023-01-23T06:45:48.377Z,14.98
2023-01-23T06:48:15.522Z,12.90
2023-01-23T06:50:42.909Z,12.20
2023-01-23T06:53:10.199Z,11.30
2023-01-23T06:55:37.341Z,14.10
2023-01-23T06:58:04.452Z,13.07
2023-01-23T07:00:34.313Z,14.15
2023-01-23T07:03:03.809Z,12.70
2023-01-23T07:05:31.272Z,12.68
2023-01-23T07:07:58.372Z,11.88
2023-01-23T07:10:26.335Z,13.07
2023-01-23T07:12:53.374Z,14.30
2023-01-23T07:15:20.444Z,13.43
2023-01-23T07:17:47.522Z,15.05
2023-01-23T07:20:15.261Z,16.95
2023-01-23T07:22:42.353Z,16.27
2023-01-23T07:25:09.550Z,12.55
2023-01-23T07:27:36.645Z,12.20
2023-01-23T07:30:03.824Z,10.98
2023-01-23T07:32:30.944Z,11.70
2023-01-23T07:34:58.075Z,9.90
2023-01-23T07:37:25.186Z,11.00
2023-01-23T07:39:52.402Z,13.48
2023-01-23T07:42:19.468Z,13.30
2023-01-23T07:44:46.547Z,11.43
2023-01-23T07:47:13.576Z,13.27
2023-01-23T07:49:40.656Z,12.07
2023-01-23T07:52:07.739Z,14.15
2023-01-23T07:54:34.831Z,15.07
2023-01-23T07:57:01.921Z,12.05
2023-01-23T07:59:28.990Z,11.27
2023-01-23T08:01:56.063Z,12.77
2023-01-23T08:04:23.116Z,14.23
2023-01-23T08:06:50.229Z,16.65
2023-01-23T08:09:17.292Z,11.40
2023-01-23T08:11:44.396Z,13.98
2023-01-23T08:14:11.896Z,14.88
2023-01-23T08:16:39.078Z,13.85
2023-01-23T08:19:09.223Z,14.35
2023-01-23T08:21:36.380Z,15.23
2023-01-23T08:24:04.761Z,14.45
2023-01-23T08:26:31.916Z,16.23
2023-01-23T08:28:58.976Z,16.23
2023-01-23T08:31:26.143Z,17.45
2023-01-23T08:33:53.279Z,15.20
2023-01-23T08:36:20.403Z,15.35
2023-01-23T08:38:47.633Z,16.20
2023-01-23T08:41:14.693Z,16.48
2023-01-23T08:43:41.912Z,15.73
2023-01-23T08:46:09.274Z,16.67
2023-01-23T08:48:36.454Z,15.32
2023-01-23T08:51:04.743Z,15.85
2023-01-23T08:53:31.926Z,14.18
2023-01-23T08:56:00.018Z,14.10
2023-01-23T08:58:27.185Z,14.82
2023-01-23T09:00:54.239Z,14.50
2023-01-23T09:03:21.286Z,15.90
2023-01-23T09:05:48.391Z,14.02
2023-01-23T09:08:15.516Z,14.43
2023-01-23T09:10:42.543Z,19.13
2023-01-23T09:13:09.701Z,18.83
2023-01-23T09:15:38.641Z,18.63
2023-01-23T09:18:05.869Z,15.95
2023-01-23T09:20:32.988Z,14.70
2023-01-23T09:23:00.127Z,18.13
2023-01-23T09:25:27.357Z,17.25
2023-01-23T09:27:54.425Z,15.20
2023-01-23T09:30:21.751Z,17.33
2023-01-23T09:32:49.073Z,14.07
2023-01-23T09:35:16.131Z,17.63
2023-01-23T09:38:01.551Z,14.65
2023-01-23T09:40:29.350Z,14.70
2023-01-23T09:42:56.875Z,18.45
2023-01-23T09:45:25.036Z,18.25
2023-01-23T09:47:57.260Z,14.75
2023-01-23T09:50:25.880Z,16.67
2023-01-23T09:53:15.147Z,14.90
2023-01-23T09:55:49.107Z,16.45
2023-01-23T09:58:20.412Z,16.50
2023-01-23T10:00:48.634Z,17.88
2023-01-23T10:03:16.513Z,14.45
2023-01-23T10:05:52.837Z,13.45
2023-01-23T10:08:22.969Z,14.07
2023-01-23T10:10:54.587Z,14.70
2023-01-23T10:13:34.207Z,14.10
2023-01-23T10:16:05.246Z,14.00
2023-01-23T10:18:43.112Z,12.93
2023-01-23T10:21:29.086Z,13.70
2023-01-23T10:23:57.297Z,13.73
2023-01-23T10:26:25.164Z,12.85
2023-01-23T10:28:52.666Z,11.93
2023-01-23T10:31:19.936Z,12.93
2023-01-23T10:33:49.620Z,11.43
2023-01-23T10:36:55.296Z,12.97
2023-01-23T10:39:29.306Z,11.63
2023-01-23T10:42:02.151Z,13.07
2023-01-23T10:44:29.719Z,13.98
2023-01-23T10:46:57.530Z,13.82
2023-01-23T10:49:29.049Z,12.50
2023-01-23T10:51:56.085Z,13.90
2023-01-23T10:54:32.971Z,11.00
2023-01-23T10:57:01.541Z,11.15
2023-01-23T10:59:28.616Z,13.40
2023-01-23T11:01:59.789Z,12.63
2023-01-23T11:04:27.632Z,11.77
2023-01-23T11:07:21.156Z,12.55
2023-01-23T11:09:53.234Z,11.25
2023-01-23T11:12:21.560Z,13.20
2023-01-23T11:14:48.610Z,12.48
2023-01-23T11:17:17.315Z,11.68
2023-01-23T11:19:44.766Z,12.23
2023-01-23T11:22:25.074Z,10.75
2023-01-23T11:24:52.230Z,9.93
2023-01-23T11:27:27.908Z,10.52
2023-01-23T11:30:07.121Z,12.82
2023-01-23T11:32:34.255Z,11.63
2023-01-23T11:35:10.605Z,9.45
2023-01-23T11:37:37.960Z,10.05
2023-01-23T11:40:09.169Z,10.40
2023-01-23T11:42:36.441Z,9.90
2023-01-23T11:45:03.707Z,9.75
2023-01-23T11:47:40.344Z,10.43
2023-01-23T11:50:25.719Z,13.07
2023-01-23T11:53:03.011Z,10.35
2023-01-23T11:55:35.028Z,10.73
2023-01-23T11:58:20.935Z,10.18
2023-01-23T12:00:52.129Z,10.52
2023-01-23T12:03:38.037Z,10.00
2023-01-23T12:06:20.250Z,11.45
2023-01-23T12:08:52.656Z,10.38
2023-01-23T12:11:20.400Z,9.43
2023-01-23T12:13:51.059Z,10.65
2023-01-23T12:18:48.038Z,10.77
2023-01-23T12:21:18.732Z,10.27
2023-01-23T12:24:01.348Z,13.00
2023-01-23T12:26:28.425Z,11.20
2023-01-23T12:29:01.737Z,12.48
2023-01-23T12:31:31.709Z,12.45
2023-01-23T12:34:19.251Z,9.60
2023-01-23T12:37:08.584Z,11.82
2023-01-23T12:39:46.558Z,11.35
2023-01-23T12:42:25.101Z,11.68
2023-01-23T12:44:57.447Z,13.77
2023-01-23T12:47:35.164Z,13.68
2023-01-23T12:50:04.375Z,15.30
2023-01-23T12:52:36.372Z,11.18
2023-01-23T12:55:15.125Z,9.10
2023-01-23T12:58:00.265Z,12.43
2023-01-23T13:00:34.608Z,9.43
2023-01-23T13:05:34.777Z,10.27
2023-01-23T13:08:14.300Z,10.93
2023-01-23T13:11:13.966Z,9.93
2023-01-23T13:13:41.266Z,9.55
2023-01-23T13:16:12.787Z,9.43
2023-01-23T13:18:58.577Z,12.48
2023-01-23T13:21:44.604Z,10.68
2023-01-23T13:24:53.194Z,10.55
2023-01-23T13:27:42.469Z,11.80
2023-01-23T13:30:31.781Z,9.05
2023-01-23T13:33:07.667Z,10.57
2023-01-23T13:35:44.819Z,11.65
2023-01-23T13:38:30.286Z,9.52
2023-01-23T13:41:21.447Z,10.60
2023-01-23T13:43:52.309Z,10.70
2023-01-23T13:46:28.899Z,10.02
2023-01-23T14:21:41.052Z,10.63
2023-01-23T14:24:24.854Z,10.98
2023-01-23T14:26:52.459Z,9.80
2023-01-23T14:29:23.263Z,9.68
2023-01-23T14:31:51.259Z,10.02
2023-01-23T14:34:19.003Z,9.23
2023-01-23T14:36:46.713Z,11.10
2023-01-23T14:39:23.584Z,8.43
2023-01-23T14:41:50.861Z,10.77
2023-01-23T14:44:21.712Z,9.93
2023-01-23T14:46:51.199Z,9.43
2023-01-23T14:49:18.276Z,9.27
2023-01-23T14:51:55.133Z,9.23
2023-01-23T14:54:23.296Z,11.10
2023-01-23T14:56:50.758Z,10.35
2023-01-23T14:59:24.085Z,9.35
2023-01-23T15:01:55.165Z,12.27
2023-01-23T15:04:23.514Z,9.25
2023-01-23T15:06:51.490Z,8.52
2023-01-23T15:09:18.665Z,10.73
2023-01-23T15:11:46.070Z,12.60
2023-01-23T15:14:24.172Z,8.95
2023-01-23T15:16:52.270Z,8.90
2023-01-23T15:19:22.773Z,9.52
2023-01-23T15:21:49.883Z,13.20
2023-01-23T15:24:18.430Z,11.05
2023-01-23T15:26:54.700Z,14.23
2023-01-23T15:29:21.935Z,9.68
2023-01-23T15:31:50.216Z,11.85
2023-01-23T15:34:17.418Z,9.50
2023-01-23T15:36:57.726Z,9.88
2023-01-23T15:39:26.486Z,12.85
2023-01-23T15:41:57.760Z,9.77
2023-01-23T15:44:27.849Z,11.45
2023-01-23T15:46:56.890Z,10.52
2023-01-23T15:56:20.830Z,11.55
2023-01-23T15:58:47.888Z,12.05
2023-01-23T16:01:14.984Z,14.50
2023-01-23T16:03:42.184Z,13.77
2023-01-23T16:06:12.602Z,11.25
2023-01-23T16:08:39.705Z,14.00
2023-01-23T16:11:06.761Z,12.85
2023-01-23T16:13:33.888Z,13.68
2023-01-23T16:16:00.993Z,13.23
2023-01-23T16:18:28.133Z,13.75
2023-01-23T16:20:55.167Z,14.65
2023-01-23T16:23:24.692Z,13.38
2023-01-23T16:25:52.515Z,13.17
2023-01-23T16:28:20.725Z,14.55
2023-01-23T16:30:48.002Z,17.15
2023-01-23T16:33:15.760Z,14.70
2023-01-23T16:35:42.912Z,13.23
2023-01-23T16:38:30.398Z,14.02
2023-01-23T16:40:59.582Z,12.25
2023-01-23T16:43:26.925Z,13.05
2023-01-23T16:45:56.134Z,13.43
2023-01-23T16:48:28.298Z,15.48
2023-01-23T16:51:25.530Z,12.70
2023-01-23T16:53:53.304Z,13.38
2023-01-23T16:56:21.861Z,15.13
2023-01-23T16:58:49.046Z,16.20
2023-01-23T17:01:17.186Z,16.17
2023-01-23T17:03:44.205Z,13.90
2023-01-23T17:06:14.556Z,13.23
2023-01-23T17:08:41.799Z,13.52
2023-01-23T17:11:08.888Z,14.73
2023-01-23T17:13:36.017Z,15.55
2023-01-23T17:16:03.648Z,12.07
2023-01-23T17:18:32.128Z,13.27
2023-01-23T17:20:59.181Z,13.02
2023-01-23T17:23:26.358Z,13.63
2023-01-23T17:26:01.821Z,15.25
2023-01-23T17:28:29.067Z,23.10
2023-01-23T17:30:56.472Z,12.50
2023-01-23T17:33:24.548Z,13.77
2023-01-23T17:35:51.775Z,14.18
2023-01-23T17:38:31.959Z,14.05
2023-01-23T17:40:59.044Z,14.02
2023-01-23T17:43:26.115Z,14.88
2023-01-23T17:45:53.284Z,14.32
2023-01-23T17:48:26.135Z,14.20
2023-01-23T17:50:53.237Z,15.40
2023-01-23T17:53:20.309Z,14.48
2023-01-23T17:55:51.364Z,13.93
2023-01-23T17:58:18.467Z,16.15
2023-01-23T18:00:45.588Z,18.63
2023-01-23T18:03:13.763Z,14.27
2023-01-23T18:05:40.828Z,17.08
2023-01-23T18:08:08.039Z,15.52
2023-01-23T18:10:35.090Z,15.75
2023-01-23T18:13:11.312Z,14.18
2023-01-23T18:15:41.116Z,14.95
2023-01-23T18:18:08.148Z,16.38
2023-01-23T18:20:35.471Z,13.73
2023-01-23T18:23:02.775Z,14.95
2023-01-23T18:25:31.092Z,14.95
2023-01-23T18:27:58.920Z,13.50
2023-01-23T18:30:45.548Z,14.30
2023-01-23T18:33:18.790Z,14.73
2023-01-23T18:36:02.098Z,12.32
2023-01-23T18:38:32.008Z,13.50
2023-01-23T18:41:19.463Z,14.15
2023-01-23T18:43:58.052Z,14.13
2023-01-23T18:46:25.324Z,15.23
2023-01-23T18:48:53.180Z,14.95
2023-01-23T18:51:23.500Z,14.45
2023-01-23T18:53:56.284Z,15.80
2023-01-23T18:56:25.991Z,16.77
2023-01-23T18:59:10.376Z,20.90
2023-01-23T19:01:38.858Z,18.45
2023-01-23T19:04:09.337Z,10.35
2023-01-23T19:06:37.219Z,12.77
2023-01-23T19:09:04.487Z,15.75
2023-01-23T19:11:32.932Z,16.02
2023-01-23T19:14:07.796Z,14.40
2023-01-23T19:16:34.901Z,16.20
2023-01-23T19:19:15.430Z,14.15
2023-01-23T19:21:43.276Z,10.55
2023-01-23T19:24:11.102Z,11.20
2023-01-23T19:26:39.246Z,15.50
2023-01-23T19:29:20.471Z,16.40
2023-01-23T19:32:02.991Z,14.48
2023-01-23T19:34:31.573Z,14.50
2023-01-23T19:36:58.606Z,14.90
2023-01-23T19:39:25.663Z,16.52
2023-01-23T19:41:53.466Z,17.88
2023-01-23T19:44:23.923Z,20.30
2023-01-23T19:46:51.200Z,15.18
2023-01-23T19:49:18.426Z,17.33
2023-01-23T19:51:45.512Z,14.90
2023-01-23T19:54:13.474Z,13.82
2023-01-23T19:56:40.661Z,16.70
2023-01-23T19:59:07.799Z,18.80
2023-01-23T20:01:40.861Z,19.00
2023-01-23T20:04:08.482Z,16.95
2023-01-23T20:06:38.713Z,17.02
2023-01-23T20:09:05.775Z,18.08
2023-01-23T20:11:32.839Z,19.13
2023-01-23T20:13:59.880Z,23.67
2023-01-23T20:16:27.118Z,19.90
2023-01-23T20:18:54.314Z,19.20
2023-01-23T20:21:22.222Z,15.13
2023-01-23T20:23:49.421Z,20.25
2023-01-23T20:26:16.803Z,19.42
2023-01-23T20:28:45.025Z,17.10
2023-01-23T20:31:12.645Z,16.63
2023-01-23T20:33:39.840Z,12.80
2023-01-23T20:36:07.648Z,15.85
2023-01-23T20:38:34.766Z,14.77
2023-01-23T20:41:05.086Z,15.52
2023-01-23T20:43:32.210Z,16.90
2023-01-23T20:45:59.281Z,15.52
2023-01-23T20:48:26.452Z,14.30
2023-01-23T20:50:54.019Z,14.93
2023-01-23T20:53:30.211Z,15.27
2023-01-23T20:55:58.087Z,17.02
2023-01-23T20:58:43.549Z,15.63
2023-01-23T21:01:10.849Z,16.75
2023-01-23T21:03:38.078Z,14.63
2023-01-23T21:06:05.235Z,15.88
2023-01-23T21:08:32.245Z,16.75
2023-01-23T21:10:59.306Z,17.48
2023-01-23T21:13:26.367Z,17.45
2023-01-23T21:15:57.022Z,17.83
2023-01-23T21:18:24.225Z,19.30
2023-01-23T21:20:51.341Z,16.35
2023-01-23T21:23:18.450Z,14.07
2023-01-23T21:25:45.502Z,16.17
2023-01-23T21:28:12.546Z,15.80
2023-01-23T21:30:39.729Z,16.42
2023-01-23T21:33:07.127Z,15.65
2023-01-23T21:35:34.218Z,15.65
2023-01-23T21:38:01.970Z,16.20
2023-01-23T21:40:29.115Z,17.45
2023-01-23T21:42:56.170Z,15.73
2023-01-23T21:45:23.443Z,22.23
2023-01-23T21:47:50.591Z,19.90
2023-01-23T21:50:18.643Z,15.52
2023-01-23T21:52:45.732Z,16.15
2023-01-23T21:55:12.803Z,15.55
2023-01-23T21:57:39.996Z,15.25
2023-01-23T22:00:26.218Z,14.82
2023-01-23T22:02:53.388Z,16.92
2023-01-23T22:05:20.771Z,15.18
2023-01-23T22:07:48.478Z,17.52
2023-01-23T22:10:15.791Z,16.83
2023-01-23T22:12:42.902Z,17.80
2023-01-23T22:15:10.343Z,15.25
2023-01-23T22:17:37.546Z,17.30
2023-01-23T22:20:06.226Z,17.98
2023-01-23T22:22:33.329Z,15.82
2023-01-23T22:25:00.413Z,19.15
2023-01-23T22:27:27.495Z,18.20
2023-01-23T22:29:54.546Z,15.38
2023-01-23T22:32:21.799Z,16.48
2023-01-23T22:34:48.974Z,18.58
2023-01-23T22:37:16.131Z,16.70
2023-01-23T22:39:44.042Z,16.75
2023-01-23T22:42:11.148Z,19.15
2023-01-23T22:44:39.857Z,16.92
2023-01-23T22:47:06.957Z,16.50
2023-01-23T22:49:34.003Z,19.42
2023-01-23T22:52:01.084Z,20.00
2023-01-23T22:54:28.194Z,16.17
2023-01-23T22:56:55.297Z,16.92
2023-01-23T22:59:22.420Z,20.08
2023-01-23T23:01:49.552Z,17.35
2023-01-23T23:04:16.594Z,20.08
2023-01-23T23:06:43.683Z,21.92
2023-01-23T23:09:10.812Z,19.50
2023-01-23T23:11:37.971Z,17.63
2023-01-23T23:14:04.997Z,18.55
2023-01-23T23:16:32.100Z,20.23
2023-01-23T23:19:00.288Z,20.52
2023-01-23T23:21:31.620Z,19.23
2023-01-23T23:23:58.936Z,19.00
2023-01-23T23:26:26.709Z,21.92
2023-01-23T23:28:54.211Z,20.75
2023-01-23T23:31:21.389Z,20.63
2023-01-23T23:33:48.544Z,18.60
2023-01-23T23:36:15.613Z,19.67
2023-01-23T23:38:42.740Z,18.00
2023-01-23T23:41:11.784Z,18.17
2023-01-23T23:43:38.939Z,17.42
2023-01-23T23:46:06.696Z,17.80
2023-01-23T23:48:34.264Z,19.15
2023-01-23T23:51:01.916Z,18.88
2023-01-23T23:53:29.085Z,19.60
2023-01-23T23:55:56.200Z,17.98
2023-01-23T23:58:23.861Z,17.63
